Time;durP1;ratioP1;P1;durP2;ratioP2;P2;SDS_P1;SDS_P2;PMS_P1;PMS_P2;Temp;Humidity;BMP_temperature;BMP_pressure;BME280_temperature;BME280_humidity;BME280_pressure;Samples;Min_cycle;Max_cycle;Signal;HPM_P1;HPM_P2
2022/10/06 00:01:35;;;;;;;2.72;1.05;;;20.10;69.50;;;;;;2396322;53;20928;-78
2022/10/06 00:04:01;;;;;;;2.30;1.10;;;20.10;69.40;;;;;;2372259;53;20948;-78
2022/10/06 00:06:28;;;;;;;2.10;0.98;;;20.00;69.40;;;;;;2429124;53;20972;-78
2022/10/06 00:08:54;;;;;;;2.12;0.93;;;20.00;69.40;;;;;;2383526;53;20956;-78
2022/10/06 00:11:21;;;;;;;2.62;1.00;;;20.00;69.40;;;;;;2349910;53;21036;-78
2022/10/06 00:13:47;;;;;;;3.35;1.10;;;19.90;69.30;;;;;;2343565;54;20940;-78
2022/10/06 00:16:21;;;;;;;2.50;1.20;;;19.90;69.30;;;;;;2343587;53;20968;-78
2022/10/06 00:19:05;;;;;;;2.20;0.93;;;19.80;68.90;;;;;;2590535;53;20944;-78
2022/10/06 00:21:32;;;;;;;4.97;1.20;;;19.80;68.40;;;;;;2372286;53;20936;-78
2022/10/06 00:23:59;;;;;;;2.60;1.25;;;19.80;69.20;;;;;;2589762;53;21051;-78
2022/10/06 00:26:25;;;;;;;2.70;1.00;;;19.70;69.20;;;;;;2344144;53;20937;-78
2022/10/06 00:28:52;;;;;;;2.15;1.00;;;19.70;69.30;;;;;;2389540;53;20924;-78
2022/10/06 00:31:18;;;;;;;2.45;1.10;;;19.60;69.30;;;;;;2343961;53;20948;-78
2022/10/06 00:33:47;;;;;;;2.37;0.88;;;19.60;69.30;;;;;;2589251;52;20911;-78
2022/10/06 00:36:15;;;;;;;3.45;1.15;;;19.60;69.30;;;;;;2347889;53;20996;-78
2022/10/06 00:38:41;;;;;;;2.53;1.00;;;19.50;69.20;;;;;;2345328;53;20994;-78
2022/10/06 00:41:13;;;;;;;3.45;1.30;;;19.50;69.30;;;;;;2414437;53;21042;-78
2022/10/06 00:43:45;;;;;;;2.67;1.17;;;19.40;69.20;;;;;;2343378;53;21425;-78
2022/10/06 00:46:34;;;;;;;2.37;1.00;;;19.40;69.20;;;;;;2407384;53;21024;-78
2022/10/06 00:50:01;;;;;;;2.35;1.10;;;19.40;69.20;;;;;;2383549;53;21435;-77
2022/10/06 00:52:28;;;;;;;3.20;1.10;;;19.30;68.00;;;;;;2387423;53;20980;-78
2022/10/06 00:54:56;;;;;;;4.22;1.05;;;19.20;69.10;;;;;;2345353;53;20919;-78
2022/10/06 00:57:23;;;;;;;2.58;1.10;;;19.20;69.10;;;;;;2342972;53;20953;-78
2022/10/06 00:59:50;;;;;;;2.12;0.85;;;19.20;69.10;;;;;;2351839;53;21375;-79
2022/10/06 01:02:33;;;;;;;2.53;1.00;;;19.10;69.10;;;;;;2342120;53;20941;-78
2022/10/06 01:05:02;;;;;;;4.68;1.30;;;19.10;68.60;;;;;;2441397;53;20991;-78
2022/10/06 01:07:28;;;;;;;2.90;1.00;;;19.00;69.30;;;;;;2347317;53;21333;-78
2022/10/06 01:09:56;;;;;;;2.97;1.10;;;19.00;69.30;;;;;;2589080;53;21047;-78
2022/10/06 01:12:23;;;;;;;2.33;1.23;;;19.00;69.40;;;;;;2457451;53;20999;-78
2022/10/06 01:14:51;;;;;;;1.83;0.82;;;18.90;69.40;;;;;;2343938;53;20975;-78
2022/10/06 01:17:38;;;;;;;2.75;1.00;;;18.90;69.50;;;;;;2456931;52;20929;-78
2022/10/06 01:20:07;;;;;;;2.87;1.00;;;18.90;69.00;;;;;;2372808;53;21030;-78
2022/10/06 01:22:38;;;;;;;2.10;1.10;;;18.80;69.50;;;;;;2346635;53;20941;-77
2022/10/06 01:25:07;;;;;;;3.15;0.80;;;18.80;69.60;;;;;;2340962;53;20964;-77
2022/10/06 01:27:34;;;;;;;2.60;1.05;;;18.80;69.40;;;;;;2335384;53;20946;-78
2022/10/06 01:30:01;;;;;;;2.80;1.40;;;18.70;69.30;;;;;;2363592;53;20983;-78
2022/10/06 01:32:32;;;;;;;2.33;1.00;;;18.70;69.30;;;;;;2347123;53;20933;-78
2022/10/06 01:34:58;;;;;;;1.90;0.90;;;18.70;69.20;;;;;;2356848;53;20993;-78
2022/10/06 01:37:24;;;;;;;2.30;0.88;;;18.60;69.20;;;;;;2557259;53;20947;-78
2022/10/06 01:39:50;;;;;;;3.30;0.95;;;18.60;69.20;;;;;;2342616;53;20952;-78
2022/10/06 01:42:17;;;;;;;3.97;1.08;;;18.50;69.10;;;;;;2432350;53;20924;-78
2022/10/06 01:44:43;;;;;;;4.07;1.10;;;18.50;69.10;;;;;;2343667;53;20933;-78
2022/10/06 01:47:10;;;;;;;2.45;1.15;;;18.40;69.00;;;;;;2497662;53;20909;-77
2022/10/06 01:49:37;;;;;;;2.62;0.93;;;18.40;69.10;;;;;;2455153;53;21631;-78
2022/10/06 01:52:03;;;;;;;2.33;1.10;;;18.30;69.00;;;;;;2342323;53;20956;-78
2022/10/06 01:54:29;;;;;;;2.90;1.27;;;18.30;69.20;;;;;;2588122;53;20952;-78
2022/10/06 01:56:56;;;;;;;2.83;1.23;;;18.20;69.20;;;;;;2363287;53;20997;-78
2022/10/06 01:59:23;;;;;;;2.85;1.30;;;18.20;69.30;;;;;;2430715;52;20944;-78
2022/10/06 02:01:49;;;;;;;3.53;0.90;;;18.20;69.50;;;;;;2434737;53;20901;-78
2022/10/06 02:04:16;;;;;;;2.15;1.08;;;18.10;69.40;;;;;;2343346;54;21012;-78
2022/10/06 02:06:42;;;;;;;4.07;1.10;;;18.10;69.40;;;;;;2343049;53;20976;-77
2022/10/06 02:09:08;;;;;;;3.28;1.42;;;18.10;69.50;;;;;;2343382;54;20944;-78
2022/10/06 02:11:35;;;;;;;3.37;1.30;;;18.00;69.50;;;;;;2343451;54;20980;-78
2022/10/06 02:14:01;;;;;;;1.98;0.98;;;18.00;69.60;;;;;;2590059;53;21437;-77
2022/10/06 02:16:28;;;;;;;3.58;1.20;;;18.00;69.70;;;;;;2588835;52;21002;-78
2022/10/06 02:18:55;;;;;;;3.17;1.12;;;17.90;69.70;;;;;;2590587;52;20884;-78
2022/10/06 02:21:21;;;;;;;2.60;1.10;;;17.90;69.80;;;;;;2388258;53;20984;-77
2022/10/06 02:23:47;;;;;;;2.95;1.55;;;17.90;69.90;;;;;;2348725;53;21035;-78
2022/10/06 02:26:19;;;;;;;2.95;1.23;;;17.90;69.90;;;;;;2590124;52;21051;-78
2022/10/06 02:28:45;;;;;;;2.42;1.00;;;17.90;69.90;;;;;;2344883;53;20944;-77
2022/10/06 02:31:12;;;;;;;4.37;1.30;;;17.90;70.00;;;;;;2344492;53;20983;-77
2022/10/06 02:33:39;;;;;;;4.45;1.20;;;17.90;70.10;;;;;;2379154;52;21007;-77
2022/10/06 02:36:06;;;;;;;2.05;0.85;;;17.80;70.10;;;;;;2380981;53;21772;-78
2022/10/06 02:38:32;;;;;;;2.33;1.10;;;17.80;70.10;;;;;;2341641;53;21000;-77
2022/10/06 02:41:16;;;;;;;2.42;1.20;;;17.80;70.00;;;;;;2344058;53;21004;-77
2022/10/06 02:43:46;;;;;;;1.85;0.80;;;17.80;69.30;;;;;;2362872;53;21556;-78
2022/10/06 02:46:13;;;;;;;2.40;1.17;;;17.80;69.80;;;;;;2342816;53;20905;-78
2022/10/06 02:48:40;;;;;;;3.00;1.40;;;17.70;69.80;;;;;;2399479;53;20976;-78
2022/10/06 02:51:09;;;;;;;3.92;1.60;;;17.70;69.90;;;;;;2534145;53;20932;-77
2022/10/06 02:53:43;;;;;;;3.45;1.70;;;17.70;70.00;;;;;;2426513;53;20996;-78
2022/10/06 02:56:11;;;;;;;3.78;1.65;;;17.70;70.30;;;;;;2343554;53;20968;-78
2022/10/06 02:58:41;;;;;;;3.30;1.70;;;17.70;70.40;;;;;;2401864;53;20913;-77
2022/10/06 03:01:18;;;;;;;2.53;1.12;;;17.70;70.60;;;;;;2343774;54;21051;-78
2022/10/06 03:03:48;;;;;;;3.40;1.40;;;17.70;70.60;;;;;;2571455;52;21046;-78
2022/10/06 03:06:55;;;;;;;5.75;1.30;;;17.70;70.70;;;;;;2474354;53;21016;-78
2022/10/06 03:09:21;;;;;;;3.22;1.52;;;17.70;70.30;;;;;;2343597;54;21413;-78
2022/10/06 03:11:47;;;;;;;2.60;1.17;;;17.70;70.90;;;;;;2589224;52;20982;-78
2022/10/06 03:14:14;;;;;;;2.75;1.17;;;17.80;71.00;;;;;;2343367;53;20940;-78
2022/10/06 03:16:42;;;;;;;2.58;1.10;;;17.80;71.00;;;;;;2342070;53;21024;-78
2022/10/06 03:19:08;;;;;;;2.85;1.10;;;17.80;71.10;;;;;;2605918;52;21053;-77
2022/10/06 03:21:40;;;;;;;2.60;1.17;;;17.80;71.10;;;;;;2349644;53;21505;-78
2022/10/06 03:24:09;;;;;;;3.37;1.00;;;17.80;71.10;;;;;;2344332;54;20980;-77
2022/10/06 03:26:40;;;;;;;3.67;1.20;;;17.80;71.20;;;;;;2378551;53;20972;-78
2022/10/06 03:29:06;;;;;;;2.60;1.10;;;17.90;71.30;;;;;;2344126;54;20996;-78
2022/10/06 03:31:34;;;;;;;2.30;1.10;;;17.80;71.20;;;;;;2473595;53;20922;-77
2022/10/06 03:34:01;;;;;;;2.28;1.08;;;17.90;71.30;;;;;;2453425;53;21091;-78
2022/10/06 03:36:29;;;;;;;2.47;1.17;;;17.90;71.30;;;;;;2459582;53;21056;-77
2022/10/06 03:38:56;;;;;;;3.42;1.30;;;17.90;71.40;;;;;;2343823;54;20932;-77
2022/10/06 03:41:24;;;;;;;4.30;1.42;;;18.00;71.50;;;;;;2344495;53;20988;-78
2022/10/06 03:43:51;;;;;;;3.83;1.62;;;18.00;71.50;;;;;;2353963;53;21853;-78
2022/10/06 03:46:18;;;;;;;3.47;1.40;;;18.00;71.60;;;;;;2448263;52;20986;-78
2022/10/06 03:48:46;;;;;;;2.80;1.20;;;18.10;71.70;;;;;;2468382;53;20996;-78
2022/10/06 03:51:20;;;;;;;2.17;1.10;;;18.10;71.80;;;;;;2358424;53;20956;-77
2022/10/06 03:53:48;;;;;;;2.85;1.30;;;18.10;71.80;;;;;;2344135;53;21032;-77
2022/10/06 03:56:28;;;;;;;2.75;1.30;;;18.10;71.70;;;;;;2435757;53;20940;-78
2022/10/06 03:59:01;;;;;;;2.60;1.20;;;18.10;72.20;;;;;;2589342;53;21009;-78
2022/10/06 04:01:29;;;;;;;3.37;1.37;;;18.20;71.70;;;;;;2343694;53;21500;-77
2022/10/06 04:03:57;;;;;;;3.03;1.42;;;18.20;71.70;;;;;;2343893;53;20924;-78
2022/10/06 04:06:24;;;;;;;2.35;1.17;;;18.20;71.70;;;;;;2343574;53;20988;-78
2022/10/06 04:08:51;;;;;;;3.65;1.70;;;18.20;71.70;;;;;;2343277;54;21917;-78
2022/10/06 04:11:31;;;;;;;2.60;1.23;;;18.30;71.90;;;;;;2516885;53;20991;-78
2022/10/06 04:17:37;;;;;;;2.78;1.40;;;18.30;71.30;;;;;;2343711;54;21557;-78
2022/10/06 04:20:04;;;;;;;4.15;1.30;;;18.40;72.00;;;;;;2415238;53;20929;-78
2022/10/06 04:22:31;;;;;;;3.42;1.17;;;18.40;72.00;;;;;;2559945;53;21358;-78
2022/10/06 04:28:38;;;;;;;3.20;1.35;;;18.50;71.50;;;;;;2590771;53;20920;-78
2022/10/06 04:31:16;;;;;;;3.10;1.30;;;18.50;72.10;;;;;;2371772;53;20964;-77
2022/10/06 04:33:42;;;;;;;3.78;1.60;;;18.50;72.60;;;;;;2457987;53;20973;-78
2022/10/06 04:36:10;;;;;;;3.75;1.73;;;18.50;72.10;;;;;;2355619;53;21055;-78
2022/10/06 04:38:36;;;;;;;3.47;1.80;;;18.50;72.10;;;;;;2343003;53;21072;-78
2022/10/06 04:41:07;;;;;;;3.20;1.73;;;18.50;71.90;;;;;;2343739;53;21837;-78
2022/10/06 04:43:34;;;;;;;3.45;1.80;;;18.50;71.80;;;;;;2409099;52;21767;-77
2022/10/06 04:46:20;;;;;;;3.37;1.42;;;18.60;71.80;;;;;;2334176;53;21946;-78
2022/10/06 04:49:07;;;;;;;2.70;1.33;;;18.60;71.20;;;;;;2483870;53;20932;-78
2022/10/06 04:51:33;;;;;;;3.10;1.58;;;18.60;71.90;;;;;;2338398;53;20983;-78
2022/10/06 04:54:39;;;;;;;3.30;1.70;;;18.60;71.90;;;;;;2588877;53;20957;-78
2022/10/06 04:57:05;;;;;;;3.33;1.62;;;18.70;71.40;;;;;;2352501;53;20974;-78
2022/10/06 05:02:19;;;;;;;4.35;1.70;;;18.70;71.80;;;;;;2441667;53;20988;-78
2022/10/06 05:04:45;;;;;;;3.12;1.65;;;18.70;71.80;;;;;;2413063;53;21044;-78
2022/10/06 05:07:12;;;;;;;3.87;1.70;;;18.70;71.70;;;;;;2443910;53;21461;-77
2022/10/06 05:09:38;;;;;;;4.05;1.70;;;18.70;71.70;;;;;;2346979;54;20983;-78
2022/10/06 05:12:11;;;;;;;3.10;1.50;;;18.70;71.70;;;;;;2348101;53;20981;-78
2022/10/06 05:14:37;;;;;;;3.50;1.58;;;18.80;71.60;;;;;;2346894;53;20939;-78
2022/10/06 05:17:05;;;;;;;3.58;1.48;;;18.80;71.90;;;;;;2590364;52;21000;-78
2022/10/06 05:19:31;;;;;;;4.32;1.20;;;18.80;71.90;;;;;;2337900;53;21100;-78
2022/10/06 05:21:58;;;;;;;3.72;1.50;;;18.80;71.90;;;;;;2344069;54;20952;-77
2022/10/06 05:24:24;;;;;;;4.75;1.40;;;18.80;71.90;;;;;;2480961;53;20944;-78
2022/10/06 05:26:52;;;;;;;2.47;1.12;;;18.80;71.90;;;;;;2419021;53;21310;-78
2022/10/06 05:29:19;;;;;;;2.37;1.02;;;18.90;71.90;;;;;;2339960;54;20920;-78
2022/10/06 05:31:45;;;;;;;2.75;1.20;;;18.90;71.90;;;;;;2338325;54;20967;-78
2022/10/06 05:34:11;;;;;;;3.05;1.25;;;18.90;71.90;;;;;;2343409;53;21040;-78
2022/10/06 05:36:38;;;;;;;3.25;1.40;;;18.90;71.80;;;;;;2544679;53;21769;-77
2022/10/06 05:39:04;;;;;;;2.47;1.17;;;18.90;71.80;;;;;;2343160;54;21424;-78
2022/10/06 05:41:31;;;;;;;3.83;1.35;;;18.90;71.70;;;;;;2342315;53;21023;-78
2022/10/06 05:43:58;;;;;;;2.92;1.10;;;19.00;71.90;;;;;;2461172;53;20941;-77
2022/10/06 05:46:28;;;;;;;3.50;0.95;;;19.00;71.90;;;;;;2343507;53;21338;-79
2022/10/06 05:48:55;;;;;;;2.17;1.00;;;19.00;71.60;;;;;;2343272;54;20992;-77
2022/10/06 05:51:26;;;;;;;3.85;1.10;;;19.00;71.70;;;;;;2342496;53;21007;-78
2022/10/06 05:53:56;;;;;;;2.53;1.00;;;19.10;71.90;;;;;;2361157;53;21043;-78
2022/10/06 05:56:30;;;;;;;2.40;1.08;;;19.10;71.90;;;;;;2427496;53;21468;-77
2022/10/06 05:58:56;;;;;;;2.10;0.95;;;19.10;71.60;;;;;;2342907;53;21334;-78
2022/10/06 06:01:33;;;;;;;2.42;0.90;;;19.10;71.90;;;;;;2374917;53;21363;-77
2022/10/06 06:04:01;;;;;;;2.50;1.20;;;19.10;71.90;;;;;;2590166;53;21006;-78
2022/10/06 06:06:41;;;;;;;2.83;1.00;;;19.10;71.80;;;;;;2590549;53;21810;-78
2022/10/06 06:09:15;;;;;;;2.33;0.82;;;19.20;71.50;;;;;;2350682;53;20940;-78
2022/10/06 06:11:46;;;;;;;2.95;0.95;;;19.20;71.80;;;;;;2343436;53;20981;-78
2022/10/06 06:14:15;;;;;;;2.92;0.90;;;19.20;71.60;;;;;;2343830;53;21251;-78
2022/10/06 06:16:42;;;;;;;2.17;0.90;;;19.20;71.60;;;;;;2397891;53;21410;-77
2022/10/06 06:19:09;;;;;;;2.40;0.90;;;19.20;71.50;;;;;;2347253;53;21248;-77
2022/10/06 06:21:35;;;;;;;3.42;1.20;;;19.20;71.50;;;;;;2516998;53;21311;-78
2022/10/06 06:24:02;;;;;;;2.87;1.10;;;19.20;71.50;;;;;;2343573;53;21028;-78
2022/10/06 06:26:38;;;;;;;2.47;1.02;;;19.20;71.50;;;;;;2341350;53;21043;-78
2022/10/06 06:29:05;;;;;;;2.40;1.10;;;19.30;71.20;;;;;;2590491;53;20956;-78
2022/10/06 06:31:44;;;;;;;2.65;1.17;;;19.30;71.50;;;;;;2341072;53;21055;-79
2022/10/06 06:34:10;;;;;;;2.70;1.10;;;19.30;71.10;;;;;;2343293;53;20952;-78
2022/10/06 06:36:58;;;;;;;3.60;1.08;;;19.30;71.60;;;;;;2354717;53;21503;-78
2022/10/06 06:39:27;;;;;;;3.53;0.90;;;19.30;70.90;;;;;;2355185;53;21027;-78
2022/10/06 06:41:53;;;;;;;1.92;0.80;;;19.30;71.50;;;;;;2347944;53;20927;-77
2022/10/06 06:44:19;;;;;;;2.00;0.80;;;19.30;71.40;;;;;;2342977;53;21686;-78
2022/10/06 06:46:48;;;;;;;3.00;0.90;;;19.30;71.40;;;;;;2339802;53;20972;-77
2022/10/06 06:49:15;;;;;;;1.83;0.70;;;19.30;71.40;;;;;;2359745;53;20992;-78
2022/10/06 06:51:48;;;;;;;2.65;0.90;;;19.30;71.40;;;;;;2474092;53;21577;-78
2022/10/06 06:54:14;;;;;;;3.40;0.82;;;19.30;71.10;;;;;;2372189;53;21672;-78
2022/10/06 06:56:41;;;;;;;3.03;0.80;;;19.30;71.30;;;;;;2343357;54;20928;-78
2022/10/06 06:59:10;;;;;;;1.83;0.82;;;19.30;71.30;;;;;;2343218;53;20937;-78
2022/10/06 07:01:44;;;;;;;2.97;0.82;;;19.40;71.40;;;;;;2589860;53;21382;-78
2022/10/06 07:04:11;;;;;;;2.72;0.90;;;19.40;71.30;;;;;;2431541;53;21012;-78
2022/10/06 07:06:38;;;;;;;2.20;0.80;;;19.40;71.20;;;;;;2338813;54;20948;-78
2022/10/06 07:09:05;;;;;;;2.35;0.80;;;19.40;71.00;;;;;;2387175;53;21438;-78
2022/10/06 07:11:32;;;;;;;6.80;1.15;;;19.40;70.90;;;;;;2503520;53;21000;-78
2022/10/06 07:14:00;;;;;;;2.97;1.00;;;19.40;70.80;;;;;;2343032;53;20936;-77
2022/10/06 07:25:10;;;;;;;2.42;0.77;;;19.40;69.70;;;;;;2351479;53;21446;-78
2022/10/06 07:27:40;;;;;;;1.48;0.55;;;19.50;70.60;;;;;;2341171;54;21045;-78
2022/10/06 07:30:11;;;;;;;9.80;1.25;;;19.50;70.70;;;;;;2392560;53;21070;-78
2022/10/06 07:32:37;;;;;;;2.03;0.70;;;19.50;70.70;;;;;;2437475;53;20936;-78
2022/10/06 07:35:16;;;;;;;1.60;0.52;;;19.50;70.70;;;;;;2347253;53;21481;-78
2022/10/06 07:37:51;;;;;;;2.70;0.80;;;19.50;69.80;;;;;;2370945;53;20960;-77
2022/10/06 07:40:18;;;;;;;1.87;0.52;;;19.50;70.10;;;;;;2417470;53;20993;-77
2022/10/06 07:42:47;;;;;;;2.67;0.73;;;19.50;70.50;;;;;;2343638;53;20920;-78
2022/10/06 07:45:40;;;;;;;3.83;0.80;;;19.50;70.50;;;;;;2344913;53;20972;-78
2022/10/06 07:48:17;;;;;;;3.70;0.62;;;19.50;69.70;;;;;;2339309;54;20948;-78
2022/10/06 07:50:47;;;;;;;2.60;0.50;;;19.50;70.40;;;;;;2525617;53;20944;-81
2022/10/06 07:53:19;;;;;;;2.20;0.47;;;19.60;70.50;;;;;;2340780;53;21000;-79
2022/10/06 07:55:46;;;;;;;;;;;19.60;70.20;;;;;;2489208;53;21424;-79
2022/10/06 07:58:17;;;;;;;4.25;0.40;;;19.60;69.50;;;;;;2344510;53;20067;-78
2022/10/06 08:00:54;;;;;;;2.42;0.50;;;19.60;70.50;;;;;;2480139;53;20973;-78
2022/10/06 08:03:21;;;;;;;4.47;0.60;;;19.70;70.00;;;;;;2351536;53;20959;-80
2022/10/06 08:05:57;;;;;;;2.97;0.60;;;19.70;70.50;;;;;;2345988;53;21272;-80
2022/10/06 08:08:24;;;;;;;4.15;0.60;;;19.70;70.10;;;;;;2348754;53;20949;-80
2022/10/06 08:10:54;;;;;;;2.33;0.65;;;19.70;70.60;;;;;;2475112;53;21012;-79
2022/10/06 08:13:20;;;;;;;2.10;0.75;;;19.80;70.40;;;;;;2348018;53;21668;-79
2022/10/06 08:15:49;;;;;;;2.75;0.85;;;19.80;70.50;;;;;;2431534;53;20985;-79
2022/10/06 08:18:16;;;;;;;3.90;0.60;;;19.80;70.30;;;;;;2370843;53;20975;-79
2022/10/06 08:20:53;;;;;;;3.22;0.68;;;19.80;70.00;;;;;;2505002;52;21013;-79
2022/10/06 08:23:19;;;;;;;2.85;0.70;;;19.80;69.80;;;;;;2376870;52;21475;-79
2022/10/06 08:25:49;;;;;;;2.30;0.70;;;19.90;70.00;;;;;;2439316;53;21403;-79
2022/10/06 08:28:16;;;;;;;3.53;0.62;;;19.90;69.70;;;;;;2344239;54;20956;-79
2022/10/06 08:30:42;;;;;;;2.12;0.57;;;19.90;70.00;;;;;;2347874;53;20966;-78
2022/10/06 08:33:08;;;;;;;2.20;0.50;;;19.90;70.00;;;;;;2370237;52;20916;-79
2022/10/06 08:35:35;;;;;;;2.22;0.55;;;20.00;70.10;;;;;;2356546;53;20945;-79
2022/10/06 08:38:02;;;;;;;3.95;0.80;;;20.00;70.10;;;;;;2344591;54;20956;-79
2022/10/06 08:40:28;;;;;;;4.03;0.60;;;20.00;70.00;;;;;;2343447;54;20936;-79
2022/10/06 08:42:55;;;;;;;2.10;0.52;;;20.00;69.90;;;;;;2420119;53;21337;-79
2022/10/06 08:45:57;;;;;;;2.47;0.88;;;20.00;69.90;;;;;;2539752;53;20936;-79
2022/10/06 08:48:27;;;;;;;2.25;0.60;;;20.10;69.10;;;;;;2381998;53;21043;-79
2022/10/06 08:51:01;;;;;;;2.20;0.68;;;20.10;69.60;;;;;;2381059;53;21027;-79
2022/10/06 08:53:47;;;;;;;1.98;0.62;;;20.10;69.00;;;;;;2433079;53;21031;-79
2022/10/06 08:56:21;;;;;;;4.43;1.15;;;20.10;68.50;;;;;;2343626;53;21015;-79
2022/10/06 08:58:52;;;;;;;2.35;0.65;;;20.20;69.10;;;;;;2404048;53;20988;-79
2022/10/06 09:01:44;;;;;;;3.87;0.70;;;20.20;68.60;;;;;;2370282;53;20948;-79
2022/10/06 09:04:18;;;;;;;3.47;0.65;;;20.20;67.80;;;;;;2338836;53;20956;-78
2022/10/06 09:08:45;;;;;;;4.05;0.85;;;20.20;68.60;;;;;;2339558;53;21071;-79
2022/10/06 09:11:26;;;;;;;3.35;0.80;;;20.20;68.10;;;;;;2381163;53;20929;-79
2022/10/06 09:14:18;;;;;;;7.25;1.00;;;20.20;68.10;;;;;;2518321;53;21028;-79
2022/10/06 09:16:47;;;;;;;2.70;0.60;;;20.20;67.30;;;;;;2433626;52;21390;-79
2022/10/06 09:19:43;;;;;;;2.12;0.65;;;20.20;68.40;;;;;;2344063;53;20925;-78
2022/10/06 09:22:18;;;;;;;4.20;0.73;;;20.20;67.40;;;;;;2451704;53;21016;-79
2022/10/06 09:24:48;;;;;;;3.72;0.80;;;20.30;68.30;;;;;;2500643;52;20979;-79
2022/10/06 09:27:20;;;;;;;3.65;0.93;;;20.30;68.80;;;;;;2436437;52;20984;-79
2022/10/06 09:29:49;;;;;;;5.10;1.25;;;20.30;68.60;;;;;;2397161;52;21549;-78
2022/10/06 09:32:20;;;;;;;2.12;0.77;;;20.30;69.10;;;;;;2356475;53;21058;-79
2022/10/06 09:34:58;;;;;;;5.57;0.85;;;20.30;68.90;;;;;;2439541;52;20943;-79
2022/10/06 09:37:24;;;;;;;4.70;1.00;;;20.40;68.60;;;;;;2596657;52;21037;-79
2022/10/06 09:39:51;;;;;;;3.92;0.70;;;20.40;69.00;;;;;;2349296;53;21040;-79
2022/10/06 09:42:25;;;;;;;7.97;1.45;;;20.40;68.90;;;;;;2435248;53;20948;-78
2022/10/06 09:45:03;;;;;;;3.67;0.90;;;20.50;68.70;;;;;;2345051;53;20973;-79
2022/10/06 09:47:38;;;;;;;2.97;0.50;;;20.50;68.00;;;;;;2487099;53;21422;-79
2022/10/06 09:50:37;;;;;;;5.07;0.68;;;20.50;68.20;;;;;;2549830;52;20943;-80
2022/10/06 09:53:09;;;;;;;3.53;0.80;;;20.60;67.10;;;;;;2349704;53;21020;-79
2022/10/06 09:55:43;;;;;;;4.05;0.60;;;20.60;68.30;;;;;;2435005;53;21002;-79
2022/10/06 09:58:38;;;;;;;3.25;0.73;;;20.70;67.70;;;;;;2551263;52;20972;-79
2022/10/06 10:01:10;;;;;;;3.20;0.60;;;20.70;67.50;;;;;;2550736;53;21008;-79
2022/10/06 10:03:50;;;;;;;3.33;0.75;;;20.70;68.10;;;;;;2383129;53;21259;-79
2022/10/06 10:06:46;;;;;;;3.78;0.70;;;20.70;67.50;;;;;;2364723;53;20956;-79
2022/10/06 10:09:22;;;;;;;2.30;0.60;;;20.80;68.30;;;;;;2358938;53;20956;-79
2022/10/06 10:12:23;;;;;;;2.20;0.70;;;20.80;68.10;;;;;;2374244;53;20928;-78
2022/10/06 10:14:55;;;;;;;3.97;0.70;;;20.80;66.90;;;;;;2381137;53;20932;-79
2022/10/06 10:18:44;;;;;;;3.50;0.60;;;20.90;67.80;;;;;;2347679;53;20944;-79
2022/10/06 10:21:21;;;;;;;3.33;0.60;;;20.90;67.90;;;;;;2341845;53;20971;-78
2022/10/06 10:23:55;;;;;;;3.10;0.82;;;21.00;68.00;;;;;;2367322;53;20964;-79
2022/10/06 10:27:07;;;;;;;3.67;0.75;;;21.00;67.30;;;;;;2343007;54;21857;-78
2022/10/06 10:30:37;;;;;;;2.03;0.60;;;21.00;66.80;;;;;;2342917;54;20960;-79
2022/10/06 10:33:16;;;;;;;2.10;0.43;;;21.00;66.60;;;;;;2392170;53;21858;-80
2022/10/06 10:35:45;;;;;;;2.33;0.60;;;21.00;66.90;;;;;;2427620;53;20933;-79
2022/10/06 10:38:20;;;;;;;4.72;0.80;;;21.00;67.60;;;;;;2446495;53;21438;-79
2022/10/06 10:40:47;;;;;;;2.58;0.73;;;21.10;67.40;;;;;;2370403;53;21024;-78
2022/10/06 10:43:34;;;;;;;2.17;0.60;;;21.00;67.40;;;;;;2376815;53;20993;-78
2022/10/06 10:46:50;;;;;;;4.12;0.90;;;21.10;66.60;;;;;;2342063;53;21453;-79
2022/10/06 10:49:26;;;;;;;2.28;0.50;;;21.10;67.30;;;;;;2343785;53;21308;-79
2022/10/06 10:52:10;;;;;;;2.83;0.90;;;21.10;67.30;;;;;;2369207;53;21249;-78
2022/10/06 10:56:11;;;;;;;2.05;0.50;;;21.20;66.60;;;;;;2344129;53;21022;-79
2022/10/06 10:58:41;;;;;;;2.65;0.55;;;21.20;67.20;;;;;;2343092;53;21416;-78
2022/10/06 11:01:38;;;;;;;2.42;0.60;;;21.30;67.30;;;;;;2343327;53;21028;-79
2022/10/06 11:04:11;;;;;;;2.97;0.70;;;21.30;66.50;;;;;;2504276;53;20987;-78
2022/10/06 11:09:54;;;;;;;2.33;0.55;;;21.30;67.40;;;;;;2455679;53;21000;-79
2022/10/06 11:12:56;;;;;;;1.23;0.50;;;21.40;67.00;;;;;;2588422;53;20968;-78
2022/10/06 11:20:36;;;;;;;4.27;0.57;;;21.40;67.00;;;;;;2428410;53;20980;-79
2022/10/06 11:23:30;;;;;;;4.15;0.68;;;21.50;67.50;;;;;;2360642;53;21457;-78
2022/10/06 11:28:01;;;;;;;2.87;0.50;;;21.60;66.90;;;;;;2374392;53;20988;-79
2022/10/06 11:30:29;;;;;;;6.65;0.75;;;21.60;66.80;;;;;;2514370;53;20959;-78
2022/10/06 11:33:06;;;;;;;2.08;0.60;;;21.60;67.70;;;;;;2342914;54;20957;-78
2022/10/06 11:35:35;;;;;;;4.00;0.60;;;21.60;67.30;;;;;;2342785;54;21402;-78
2022/10/06 11:38:25;;;;;;;2.37;0.55;;;21.60;67.90;;;;;;2343256;53;20944;-78
2022/10/06 11:44:36;;;;;;;4.47;0.70;;;21.60;67.90;;;;;;2582053;53;20949;-78
2022/10/06 11:47:10;;;;;;;3.17;0.50;;;21.80;67.70;;;;;;2360598;53;20997;-77
2022/10/06 11:49:53;;;;;;;3.42;0.60;;;21.80;67.90;;;;;;2383754;52;20936;-78
2022/10/06 11:52:43;;;;;;;1.62;0.60;;;21.80;67.00;;;;;;2338767;53;21341;-77
2022/10/06 11:55:15;;;;;;;2.30;0.80;;;21.80;67.50;;;;;;2356770;53;21450;-78
2022/10/06 11:58:06;;;;;;;2.33;0.50;;;21.80;67.50;;;;;;2339092;53;21477;-79
2022/10/06 12:00:40;;;;;;;3.03;0.70;;;21.80;66.40;;;;;;2476693;53;20979;-78
2022/10/06 12:04:11;;;;;;;2.60;0.70;;;21.80;67.50;;;;;;2342404;53;21067;-78
2022/10/06 12:07:11;;;;;;;5.15;0.70;;;21.90;65.60;;;;;;2342022;53;21851;-77
2022/10/06 12:09:39;;;;;;;1.85;0.50;;;21.90;65.40;;;;;;2392549;53;20919;-77
2022/10/06 12:15:24;;;;;;;2.20;0.77;;;21.90;66.60;;;;;;2367929;53;22040;-77
2022/10/06 12:20:17;;;;;;;1.50;0.40;;;22.00;66.50;;;;;;2366546;53;21043;-78
2022/10/06 12:23:36;;;;;;;2.97;0.82;;;22.00;65.60;;;;;;2342911;53;20928;-79
2022/10/06 12:26:23;;;;;;;3.83;0.70;;;22.00;67.10;;;;;;2344017;53;20948;-77
2022/10/06 12:28:50;;;;;;;2.47;0.60;;;22.10;67.30;;;;;;2345242;53;21022;-78
2022/10/06 12:32:45;;;;;;;2.58;0.85;;;22.10;67.20;;;;;;2589238;52;20931;-78
2022/10/06 12:35:48;;;;;;;3.20;0.60;;;22.10;65.70;;;;;;2346384;53;20974;-77
2022/10/06 12:42:04;;;;;;;4.05;0.70;;;22.20;66.40;;;;;;2365614;53;21070;-78
2022/10/06 12:44:39;;;;;;;2.05;0.52;;;22.20;65.60;;;;;;2431230;53;20942;-77
2022/10/06 12:47:50;;;;;;;2.42;0.55;;;22.20;66.20;;;;;;2590131;52;21502;-77
2022/10/06 12:50:21;;;;;;;2.97;0.85;;;22.20;64.90;;;;;;2346580;53;20971;-77
2022/10/06 12:52:52;;;;;;;2.15;0.60;;;22.20;65.80;;;;;;2327528;53;21042;-79
2022/10/06 12:56:28;;;;;;;2.40;0.80;;;22.20;66.00;;;;;;2497635;52;20939;-77
2022/10/06 12:58:55;;;;;;;2.83;0.62;;;22.20;65.40;;;;;;2354784;53;21061;-77
2022/10/06 13:01:21;;;;;;;3.72;0.80;;;22.20;66.30;;;;;;2361322;53;20915;-77
2022/10/06 13:03:48;;;;;;;3.67;0.90;;;22.20;66.10;;;;;;2396681;52;21705;-77
2022/10/06 13:06:22;;;;;;;2.55;0.75;;;22.10;65.80;;;;;;2343672;54;21063;-77
2022/10/06 13:09:05;;;;;;;3.37;0.60;;;22.20;65.70;;;;;;2346583;53;21042;-77
2022/10/06 13:11:31;;;;;;;3.53;0.70;;;22.20;64.90;;;;;;2343232;54;21426;-77
2022/10/06 13:14:06;;;;;;;3.22;0.68;;;22.20;65.70;;;;;;2480743;53;20959;-77
2022/10/06 13:16:39;;;;;;;3.15;0.80;;;22.20;65.60;;;;;;2392238;53;21017;-78
2022/10/06 13:19:22;;;;;;;4.43;0.80;;;22.20;65.50;;;;;;2482723;53;20948;-77
2022/10/06 13:21:48;;;;;;;2.40;0.60;;;22.20;64.80;;;;;;2343105;53;21067;-77
2022/10/06 13:24:19;;;;;;;2.92;0.77;;;22.10;65.50;;;;;;2411880;53;20973;-77
2022/10/06 13:26:46;;;;;;;4.78;0.73;;;22.10;65.60;;;;;;2345793;53;21012;-77
2022/10/06 13:29:23;;;;;;;4.20;0.80;;;22.10;65.50;;;;;;2422838;53;20991;-78
2022/10/06 13:31:51;;;;;;;2.83;0.98;;;22.20;64.90;;;;;;2513196;53;21004;-78
2022/10/06 13:34:42;;;;;;;3.78;0.90;;;22.20;65.50;;;;;;2444128;53;20931;-77
2022/10/06 13:37:11;;;;;;;3.62;0.82;;;22.20;65.20;;;;;;2407391;53;20916;-77
2022/10/06 13:39:39;;;;;;;2.65;0.62;;;22.20;65.30;;;;;;2404787;53;20989;-78
2022/10/06 13:42:15;;;;;;;2.55;0.57;;;22.20;65.20;;;;;;2343367;54;20929;-78
2022/10/06 13:44:49;;;;;;;2.78;0.50;;;22.20;64.30;;;;;;2584030;53;20920;-77
2022/10/06 13:47:21;;;;;;;3.37;0.70;;;22.20;64.70;;;;;;2342921;54;21473;-77
2022/10/06 13:50:00;;;;;;;3.07;0.80;;;22.20;65.20;;;;;;2549171;53;2158292;-77
2022/10/06 13:52:40;;;;;;;4.00;0.93;;;22.20;64.60;;;;;;2494535;53;21193;-77
2022/10/06 13:55:39;;;;;;;3.22;0.90;;;22.20;64.00;;;;;;2323716;54;20940;-77
2022/10/06 13:58:08;;;;;;;4.37;0.98;;;22.10;63.30;;;;;;2343734;53;20944;-78
2022/10/06 14:02:31;;;;;;;3.12;0.70;;;22.10;64.70;;;;;;2552301;53;20919;-77
2022/10/06 14:08:25;;;;;;;4.35;0.57;;;22.10;64.40;;;;;;2342844;53;20078;-77
2022/10/06 14:11:00;;;;;;;5.80;0.70;;;22.10;64.80;;;;;;2521569;52;20971;-77
2022/10/06 14:13:31;;;;;;;4.25;0.70;;;22.10;64.60;;;;;;2344605;53;20952;-77